createdAt,value
2023-01-15T00:01:01.039Z,100.00
2023-01-15T00:03:29.093Z,100.00
2023-01-15T00:05:55.744Z,100.00
2023-01-15T00:08:22.531Z,100.00
2023-01-15T00:10:49.131Z,100.00
2023-01-15T00:13:15.757Z,100.00
2023-01-15T00:15:42.598Z,100.00
2023-01-15T00:18:10.365Z,100.00
2023-01-15T00:20:37.010Z,100.00
2023-01-15T00:23:03.601Z,100.00
2023-01-15T00:25:48.552Z,100.00
2023-01-15T00:28:15.203Z,100.00
2023-01-15T00:30:46.010Z,100.00
2023-01-15T00:33:12.595Z,100.00
2023-01-15T00:35:39.647Z,100.00
2023-01-15T00:38:07.159Z,100.00
2023-01-15T00:40:34.204Z,100.00
2023-01-15T00:43:00.880Z,100.00
2023-01-15T00:45:27.542Z,100.00
2023-01-15T00:47:54.356Z,100.00
2023-01-15T00:50:21.042Z,100.00
2023-01-15T00:52:47.738Z,100.00
2023-01-15T00:55:14.382Z,100.00
2023-01-15T00:57:41.100Z,100.00
2023-01-15T01:00:08.448Z,100.00
2023-01-15T01:02:35.181Z,100.00
2023-01-15T01:05:01.905Z,100.00
2023-01-15T01:07:30.534Z,100.00
2023-01-15T01:09:57.152Z,100.00
2023-01-15T01:12:23.823Z,100.00
2023-01-15T01:14:50.499Z,100.00
2023-01-15T01:17:17.194Z,100.00
2023-01-15T01:19:43.868Z,100.00
2023-01-15T01:22:10.475Z,100.00
2023-01-15T01:24:37.142Z,100.00
2023-01-15T01:27:03.863Z,100.00
2023-01-15T01:29:30.474Z,100.00
2023-01-15T01:31:57.264Z,100.00
2023-01-15T01:34:24.221Z,100.00
2023-01-15T01:36:50.920Z,100.00
2023-01-15T01:39:19.441Z,100.00
2023-01-15T01:41:47.081Z,100.00
2023-01-15T01:44:33.516Z,100.00
2023-01-15T01:47:03.219Z,100.00
2023-01-15T01:49:30.867Z,100.00
2023-01-15T01:52:07.715Z,100.00
2023-01-15T01:54:38.148Z,100.00
2023-01-15T01:57:06.554Z,100.00
2023-01-15T01:59:33.566Z,100.00
2023-01-15T02:02:00.788Z,100.00
2023-01-15T02:04:29.312Z,100.00
2023-01-15T02:06:57.640Z,100.00
2023-01-15T02:09:24.976Z,100.00
2023-01-15T02:11:57.483Z,100.00
2023-01-15T02:14:38.810Z,100.00
2023-01-15T02:17:16.701Z,100.00
2023-01-15T02:20:09.271Z,100.00
2023-01-15T02:22:53.473Z,100.00
2023-01-15T02:25:33.800Z,100.00
2023-01-15T02:28:13.131Z,100.00
2023-01-15T02:30:48.965Z,100.00
2023-01-15T02:33:35.434Z,100.00
2023-01-15T02:36:06.646Z,100.00
2023-01-15T02:38:46.214Z,100.00
2023-01-15T02:41:18.451Z,100.00
2023-01-15T02:43:57.822Z,100.00
2023-01-15T02:46:30.690Z,100.00
2023-01-15T02:49:00.375Z,100.00
2023-01-15T02:51:44.795Z,100.00
2023-01-15T02:54:15.665Z,100.00
2023-01-15T02:56:47.094Z,100.00
2023-01-15T02:59:21.378Z,100.00
2023-01-15T03:01:55.428Z,100.00
2023-01-15T03:04:37.422Z,100.00
2023-01-15T03:07:19.071Z,100.00
2023-01-15T03:09:47.844Z,98.00
2023-01-15T03:12:26.032Z,93.99
2023-01-15T03:15:42.572Z,93.66
2023-01-15T03:18:13.173Z,91.95
2023-01-15T03:20:51.061Z,92.49
2023-01-15T03:23:19.237Z,92.72
2023-01-15T03:25:49.411Z,93.79
2023-01-15T03:28:25.377Z,91.67
2023-01-15T03:30:53.108Z,90.07
2023-01-15T03:33:20.170Z,89.63
2023-01-15T03:35:55.951Z,89.02
2023-01-15T03:38:46.782Z,89.44
2023-01-15T03:41:59.575Z,90.01
2023-01-15T03:44:41.315Z,90.51
2023-01-15T03:47:42.866Z,91.29
2023-01-15T03:50:37.237Z,90.68
2023-01-15T03:53:15.811Z,90.96
2023-01-15T03:55:59.647Z,90.74
2023-01-15T03:58:39.585Z,92.19
2023-01-15T04:01:12.673Z,91.54
2023-01-15T04:03:42.451Z,91.96
2023-01-15T04:06:10.405Z,91.06
2023-01-15T04:08:40.765Z,90.64
2023-01-15T04:11:08.776Z,89.53
2023-01-15T04:13:46.087Z,88.41
2023-01-15T04:16:28.753Z,89.50
2023-01-15T04:18:55.465Z,88.39
2023-01-15T04:21:23.538Z,88.12
2023-01-15T04:23:50.279Z,87.61
2023-01-15T04:26:17.496Z,88.21
2023-01-15T04:28:44.212Z,87.52
2023-01-15T04:31:11.006Z,88.30
2023-01-15T04:33:39.991Z,89.03
2023-01-15T04:36:08.767Z,88.87
2023-01-15T04:38:38.407Z,88.50
2023-01-15T04:41:24.493Z,89.53
2023-01-15T04:44:09.335Z,89.52
2023-01-15T04:46:40.603Z,89.71
2023-01-15T04:49:13.399Z,87.69
2023-01-15T04:51:41.217Z,89.05
2023-01-15T04:54:09.400Z,89.59
2023-01-15T04:56:40.042Z,89.45
2023-01-15T04:59:07.045Z,89.54
2023-01-15T05:01:34.208Z,88.99
2023-01-15T05:04:01.762Z,89.43
2023-01-15T05:06:29.351Z,88.37
2023-01-15T05:08:56.003Z,87.97
2023-01-15T05:11:23.039Z,87.90
2023-01-15T05:13:49.702Z,87.15
2023-01-15T05:16:19.226Z,89.20
2023-01-15T05:18:47.195Z,89.29
2023-01-15T05:21:19.087Z,89.31
2023-01-15T05:23:47.496Z,88.89
2023-01-15T05:26:14.428Z,89.72
2023-01-15T05:28:41.151Z,90.02
2023-01-15T05:31:10.890Z,89.74
2023-01-15T05:33:38.670Z,88.65
2023-01-15T05:36:14.017Z,88.67
2023-01-15T05:38:41.431Z,88.39
2023-01-15T05:41:29.710Z,88.10
2023-01-15T05:43:59.621Z,88.18
2023-01-15T05:46:26.272Z,88.14
2023-01-15T05:48:53.003Z,87.96
2023-01-15T05:51:19.779Z,87.54
2023-01-15T05:53:46.397Z,87.04
2023-01-15T05:56:13.091Z,87.03
2023-01-15T05:58:39.722Z,85.86
2023-01-15T06:01:08.631Z,85.86
2023-01-15T06:03:35.663Z,87.11
2023-01-15T06:06:03.981Z,85.69
2023-01-15T06:08:31.004Z,85.74
2023-01-15T06:10:57.644Z,85.64
2023-01-15T06:13:24.251Z,85.12
2023-01-15T06:15:50.883Z,84.65
2023-01-15T06:18:17.521Z,86.01
2023-01-15T06:20:44.159Z,87.05
2023-01-15T06:23:10.777Z,87.05
2023-01-15T06:25:37.862Z,87.78
2023-01-15T06:28:06.183Z,87.90
2023-01-15T06:30:33.432Z,87.17
2023-01-15T06:33:00.619Z,87.92
2023-01-15T06:35:27.309Z,88.14
2023-01-15T06:37:53.943Z,86.91
2023-01-15T06:40:20.643Z,86.27
2023-01-15T06:43:05.789Z,86.00
2023-01-15T06:45:57.193Z,86.75
2023-01-15T06:48:25.194Z,87.67
2023-01-15T06:50:52.242Z,86.56
2023-01-15T06:53:19.501Z,86.83
2023-01-15T06:55:46.363Z,87.13
2023-01-15T06:58:13.293Z,86.56
2023-01-15T07:00:42.835Z,86.49
2023-01-15T07:03:09.635Z,85.42
2023-01-15T07:05:39.189Z,84.86
2023-01-15T07:08:05.889Z,84.60
2023-01-15T07:10:35.274Z,85.13
2023-01-15T07:13:02.070Z,84.73
2023-01-15T07:15:29.096Z,84.90
2023-01-15T07:17:56.765Z,85.07
2023-01-15T07:20:24.201Z,85.98
2023-01-15T07:22:53.790Z,86.14
2023-01-15T07:25:20.440Z,86.05
2023-01-15T07:27:48.275Z,87.03
2023-01-15T07:30:15.103Z,86.51
2023-01-15T07:32:41.929Z,87.47
2023-01-15T07:35:10.082Z,87.55
2023-01-15T07:37:37.720Z,86.26
2023-01-15T07:40:04.886Z,86.35
2023-01-15T07:42:49.763Z,85.88
2023-01-15T07:45:35.652Z,85.08
2023-01-15T07:48:20.918Z,84.43
2023-01-15T07:50:47.610Z,84.91
2023-01-15T07:53:14.309Z,84.89
2023-01-15T07:55:40.937Z,84.64
2023-01-15T07:58:07.509Z,84.25
2023-01-15T08:00:34.151Z,84.57
2023-01-15T08:03:01.245Z,84.48
2023-01-15T08:05:27.857Z,85.29
2023-01-15T08:07:54.524Z,85.03
2023-01-15T08:10:21.178Z,85.41
2023-01-15T08:13:08.472Z,85.37
2023-01-15T08:15:39.500Z,85.24
2023-01-15T08:18:07.198Z,85.88
2023-01-15T08:20:36.093Z,86.09
2023-01-15T08:23:02.961Z,84.66
2023-01-15T08:25:29.640Z,85.31
2023-01-15T08:27:56.566Z,84.73
2023-01-15T08:30:25.506Z,85.99
2023-01-15T08:32:52.692Z,85.68
2023-01-15T08:35:19.504Z,85.64
2023-01-15T08:37:46.139Z,85.15
2023-01-15T08:40:13.013Z,85.34
2023-01-15T08:42:40.541Z,86.56
2023-01-15T08:45:07.911Z,87.31
2023-01-15T08:47:34.582Z,87.82
2023-01-15T08:50:01.197Z,86.56
2023-01-15T08:52:29.965Z,86.89
2023-01-15T08:54:56.567Z,86.99
2023-01-15T08:57:23.153Z,87.12
2023-01-15T08:59:49.689Z,86.58
2023-01-15T09:02:17.597Z,86.47
2023-01-15T09:04:44.319Z,86.83
2023-01-15T09:07:12.621Z,86.71
2023-01-15T09:09:39.314Z,87.09
2023-01-15T09:12:06.031Z,86.32
2023-01-15T09:14:57.896Z,85.35
2023-01-15T09:17:19.146Z,83.83
2023-01-15T09:19:46.073Z,83.34
2023-01-15T09:22:12.655Z,82.59
2023-01-15T09:24:39.236Z,82.96
2023-01-15T09:27:05.840Z,82.16
2023-01-15T09:29:32.433Z,82.01
2023-01-15T09:31:59.121Z,81.52
2023-01-15T09:34:25.662Z,81.82
2023-01-15T09:36:52.380Z,82.14
2023-01-15T09:39:19.096Z,81.64
2023-01-15T09:42:19.216Z,81.11
2023-01-15T09:45:06.370Z,82.21
2023-01-15T09:47:59.161Z,82.20
2023-01-15T09:50:53.342Z,82.55
2023-01-15T09:54:08.186Z,82.94
2023-01-15T09:56:36.953Z,83.15
2023-01-15T09:59:16.545Z,82.51
2023-01-15T10:01:43.579Z,82.12
2023-01-15T10:04:40.780Z,81.46
2023-01-15T10:07:10.390Z,81.32
2023-01-15T10:09:41.048Z,80.82
2023-01-15T10:12:35.202Z,80.55
2023-01-15T10:15:14.074Z,80.98
2023-01-15T10:17:43.089Z,80.26
2023-01-15T10:20:15.630Z,80.40
2023-01-15T10:23:05.183Z,79.59
2023-01-15T10:25:56.451Z,79.36
2023-01-15T10:28:31.973Z,76.88
2023-01-15T10:31:18.911Z,76.34
2023-01-15T10:33:59.298Z,80.17
2023-01-15T10:36:33.776Z,80.43
2023-01-15T10:39:31.439Z,79.82
2023-01-15T10:42:21.467Z,80.30
2023-01-15T10:45:10.279Z,81.76
2023-01-15T10:47:38.973Z,81.36
2023-01-15T10:50:20.829Z,80.41
2023-01-15T10:52:56.270Z,80.58
2023-01-15T10:55:31.752Z,80.05
2023-01-15T10:58:11.566Z,79.18
2023-01-15T11:00:39.672Z,79.16
2023-01-15T11:03:43.227Z,79.43
2023-01-15T11:06:21.734Z,79.83
2023-01-15T11:09:12.657Z,80.42
2023-01-15T11:12:01.764Z,80.35
2023-01-15T11:15:01.221Z,81.12
2023-01-15T11:17:59.812Z,80.99
2023-01-15T11:20:32.132Z,80.02
2023-01-15T11:23:07.763Z,79.46
2023-01-15T11:25:34.493Z,79.69
2023-01-15T11:28:06.551Z,79.81
2023-01-15T11:30:37.835Z,79.36
2023-01-15T11:33:07.227Z,79.57
2023-01-15T11:35:34.487Z,81.59
2023-01-15T11:38:02.882Z,82.20
2023-01-15T11:40:30.188Z,82.61
2023-01-15T11:43:15.628Z,82.34
2023-01-15T11:46:09.063Z,83.12
2023-01-15T11:49:03.767Z,83.84
2023-01-15T11:51:35.625Z,83.16
2023-01-15T11:54:08.174Z,82.89
2023-01-15T11:56:36.138Z,84.04
2023-01-15T11:59:09.391Z,83.02
2023-01-15T12:01:42.179Z,83.32
2023-01-15T12:04:47.795Z,83.63
2023-01-15T12:07:15.002Z,83.28
2023-01-15T12:09:57.733Z,83.76
2023-01-15T12:13:01.464Z,83.64
2023-01-15T12:15:55.047Z,83.05
2023-01-15T12:18:31.942Z,83.55
2023-01-15T12:21:19.698Z,83.90
2023-01-15T12:23:55.773Z,83.95
2023-01-15T12:26:28.858Z,84.43
2023-01-15T12:29:13.409Z,83.88
2023-01-15T12:31:46.842Z,84.58
2023-01-15T12:34:25.688Z,85.04
2023-01-15T12:37:02.346Z,85.33
2023-01-15T12:39:43.039Z,85.24
2023-01-15T12:42:34.539Z,85.61
2023-01-15T12:45:07.680Z,85.48
2023-01-15T12:47:48.363Z,84.88
2023-01-15T12:50:32.652Z,84.78
2023-01-15T12:53:14.768Z,84.80
2023-01-15T12:55:54.289Z,84.13
2023-01-15T12:58:31.038Z,81.98
2023-01-15T13:01:06.880Z,81.70
2023-01-15T13:03:47.901Z,81.40
2023-01-15T13:06:16.915Z,80.71
2023-01-15T13:09:05.832Z,79.02
2023-01-15T13:11:32.891Z,76.42
2023-01-15T13:13:59.601Z,75.88
2023-01-15T13:16:54.402Z,74.46
2023-01-15T13:19:40.307Z,71.95
2023-01-15T13:22:15.464Z,71.28
2023-01-15T13:25:11.449Z,71.06
2023-01-15T13:27:56.416Z,71.56
2023-01-15T13:30:46.455Z,71.59
2023-01-15T13:33:29.847Z,71.44
2023-01-15T13:36:29.822Z,70.76
2023-01-15T13:39:00.648Z,71.02
2023-01-15T13:41:49.417Z,70.49
2023-01-15T13:44:20.147Z,70.65
2023-01-15T13:46:49.435Z,68.86
2023-01-15T13:49:32.063Z,68.43
2023-01-15T13:52:04.072Z,68.27
2023-01-15T13:54:32.865Z,67.92
2023-01-15T13:57:22.802Z,66.62
2023-01-15T13:59:50.741Z,66.27
2023-01-15T14:02:24.609Z,65.72
2023-01-15T14:04:51.771Z,66.26
2023-01-15T14:07:31.938Z,66.75
2023-01-15T14:10:24.192Z,66.83
2023-01-15T14:13:12.249Z,67.03
2023-01-15T14:15:58.441Z,66.63
2023-01-15T14:18:58.690Z,66.17
2023-01-15T14:21:43.945Z,65.99
2023-01-15T14:24:27.694Z,65.06
2023-01-15T14:27:26.837Z,65.97
2023-01-15T14:30:10.236Z,66.15
2023-01-15T14:32:59.071Z,66.15
2023-01-15T14:35:26.260Z,66.35
2023-01-15T14:37:57.528Z,66.20
2023-01-15T14:40:33.107Z,67.18
2023-01-15T14:43:07.659Z,67.43
2023-01-15T14:45:41.979Z,68.04
2023-01-15T14:48:20.575Z,67.53
2023-01-15T14:50:48.807Z,67.75
2023-01-15T14:53:32.811Z,67.15
2023-01-15T14:56:14.537Z,65.96
2023-01-15T14:59:08.795Z,66.11
2023-01-15T15:01:41.687Z,67.69
2023-01-15T15:04:39.312Z,68.00
2023-01-15T15:07:12.242Z,66.79
2023-01-15T15:09:43.879Z,67.03
2023-01-15T15:12:28.732Z,67.71
2023-01-15T15:15:03.162Z,68.27
2023-01-15T15:17:39.722Z,68.95
2023-01-15T15:20:58.096Z,69.17
2023-01-15T15:23:36.877Z,69.49
2023-01-15T15:26:06.977Z,70.54
2023-01-15T15:28:33.835Z,71.46
2023-01-15T15:31:01.573Z,71.74
2023-01-15T15:33:38.160Z,72.07
2023-01-15T15:36:07.288Z,71.98
2023-01-15T15:38:34.638Z,72.42
2023-01-15T15:41:05.129Z,72.70
2023-01-15T15:44:04.341Z,73.49
2023-01-15T15:46:51.474Z,74.28
2023-01-15T15:49:22.241Z,74.67
2023-01-15T15:51:53.753Z,75.21
2023-01-15T15:54:23.427Z,75.11
2023-01-15T15:57:17.006Z,75.31
2023-01-15T15:59:47.795Z,76.40
2023-01-15T16:02:36.490Z,76.61
2023-01-15T16:05:28.368Z,76.73
2023-01-15T16:07:55.295Z,76.70
2023-01-15T16:10:29.337Z,75.99
2023-01-15T16:12:59.983Z,77.03
2023-01-15T16:15:41.073Z,77.37
2023-01-15T16:18:23.642Z,76.08
2023-01-15T16:20:50.375Z,76.92
2023-01-15T16:23:25.747Z,76.39
2023-01-15T16:26:03.102Z,76.66
2023-01-15T16:28:49.802Z,76.13
2023-01-15T16:31:18.783Z,75.75
2023-01-15T16:33:59.176Z,76.21
2023-01-15T16:36:27.134Z,76.44
2023-01-15T16:38:55.124Z,75.44
2023-01-15T16:41:29.636Z,74.94
2023-01-15T16:44:01.221Z,75.77
2023-01-15T16:46:31.834Z,75.05
2023-01-15T16:49:29.472Z,75.09
2023-01-15T16:51:58.234Z,74.45
2023-01-15T16:54:31.008Z,74.81
2023-01-15T16:57:23.514Z,73.86
2023-01-15T16:59:57.596Z,73.61
2023-01-15T17:02:29.707Z,73.45
2023-01-15T17:04:56.671Z,72.84
2023-01-15T17:07:39.260Z,72.55
2023-01-15T17:10:19.934Z,72.17
2023-01-15T17:12:47.157Z,72.25
2023-01-15T17:15:16.529Z,71.55
2023-01-15T17:17:51.087Z,71.38
2023-01-15T17:20:20.073Z,71.22
2023-01-15T17:22:49.913Z,70.53
2023-01-15T17:25:21.495Z,70.07
2023-01-15T17:27:48.107Z,71.20
2023-01-15T17:30:15.743Z,70.43
2023-01-15T17:32:42.776Z,70.25
2023-01-15T17:35:30.600Z,70.46
2023-01-15T17:37:57.459Z,70.79
2023-01-15T17:40:25.258Z,70.60
2023-01-15T17:42:53.812Z,70.20
2023-01-15T17:45:28.593Z,70.53
2023-01-15T17:47:55.677Z,71.01
2023-01-15T17:50:23.034Z,70.52
2023-01-15T17:52:50.586Z,69.99
2023-01-15T17:55:39.186Z,70.32
2023-01-15T17:58:27.372Z,69.70
2023-01-15T18:01:13.056Z,70.08
2023-01-15T18:04:04.665Z,70.13
2023-01-15T18:06:31.753Z,69.67
2023-01-15T18:09:01.604Z,70.17
2023-01-15T18:11:28.639Z,70.35
2023-01-15T18:13:55.999Z,70.02
2023-01-15T18:16:23.475Z,70.24
2023-01-15T18:18:52.727Z,69.88
2023-01-15T18:21:20.177Z,69.85
2023-01-15T18:23:47.242Z,70.68
2023-01-15T18:26:14.191Z,70.73
2023-01-15T18:28:40.909Z,70.91
2023-01-15T18:31:08.998Z,71.22
2023-01-15T18:33:35.734Z,71.26
2023-01-15T18:36:13.903Z,72.86
2023-01-15T18:38:46.129Z,71.60
2023-01-15T18:41:34.128Z,72.61
2023-01-15T18:44:24.188Z,72.84
2023-01-15T18:46:54.224Z,73.22
2023-01-15T18:49:21.434Z,73.32
2023-01-15T18:52:06.850Z,73.70
2023-01-15T18:54:33.588Z,73.82
2023-01-15T18:57:00.583Z,74.07
2023-01-15T18:59:27.343Z,73.55
2023-01-15T19:01:56.235Z,73.05
2023-01-15T19:04:23.084Z,73.76
2023-01-15T19:06:50.240Z,72.95
2023-01-15T19:09:18.025Z,72.23
2023-01-15T19:11:44.839Z,73.60
2023-01-15T19:14:30.350Z,73.20
2023-01-15T19:17:15.560Z,72.49
2023-01-15T19:19:43.272Z,73.12
2023-01-15T19:22:29.035Z,73.43
2023-01-15T19:24:56.266Z,72.92
2023-01-15T19:27:23.166Z,72.06
2023-01-15T19:29:50.505Z,72.41
2023-01-15T19:32:17.505Z,72.55
2023-01-15T19:34:44.818Z,72.71
2023-01-15T19:37:11.480Z,73.49
2023-01-15T19:39:38.426Z,73.24
2023-01-15T19:42:24.123Z,73.40
2023-01-15T19:45:09.385Z,74.23
2023-01-15T19:48:01.452Z,73.69
2023-01-15T19:50:43.476Z,74.09
2023-01-15T19:53:13.179Z,73.53
2023-01-15T19:55:45.050Z,73.64
2023-01-15T19:58:13.892Z,73.47
2023-01-15T20:00:43.089Z,73.54
2023-01-15T20:03:12.169Z,73.25
2023-01-15T20:05:41.035Z,73.16
2023-01-15T20:08:12.475Z,72.98
2023-01-15T20:10:41.758Z,73.65
2023-01-15T20:13:45.363Z,72.39
2023-01-15T20:16:19.647Z,72.20
2023-01-15T20:18:50.236Z,72.63
2023-01-15T20:21:17.813Z,72.72
2023-01-15T20:23:44.952Z,72.89
2023-01-15T20:26:14.386Z,72.45
2023-01-15T20:28:42.641Z,72.50
2023-01-15T20:31:19.322Z,72.41
2023-01-15T20:33:47.788Z,72.35
2023-01-15T20:36:15.029Z,72.87
2023-01-15T20:38:41.639Z,72.87
2023-01-15T20:41:29.751Z,71.72
2023-01-15T20:44:14.826Z,72.83
2023-01-15T20:46:41.613Z,72.73
2023-01-15T20:49:28.861Z,73.08
2023-01-15T20:51:56.745Z,71.58
2023-01-15T20:54:25.647Z,71.60
2023-01-15T20:56:52.656Z,71.90
2023-01-15T20:59:19.563Z,71.75
2023-01-15T21:01:46.304Z,71.98
2023-01-15T21:04:13.731Z,71.70
2023-01-15T21:06:41.144Z,72.82
2023-01-15T21:09:08.095Z,71.57
2023-01-15T21:11:35.043Z,71.37
2023-01-15T21:14:01.762Z,72.33
2023-01-15T21:16:28.462Z,72.14
2023-01-15T21:18:55.557Z,70.66
2023-01-15T21:21:22.770Z,71.76
2023-01-15T21:23:50.250Z,70.66
2023-01-15T21:26:17.284Z,71.16
2023-01-15T21:28:44.722Z,71.32
2023-01-15T21:31:13.056Z,71.07
2023-01-15T21:33:42.494Z,72.19
2023-01-15T21:36:12.343Z,71.63
2023-01-15T21:38:39.866Z,71.51
2023-01-15T21:41:14.287Z,71.86
2023-01-15T21:44:01.027Z,71.55
2023-01-15T21:46:28.268Z,71.98
2023-01-15T21:48:56.208Z,71.63
2023-01-15T21:51:24.277Z,72.69
2023-01-15T21:53:50.899Z,73.23
2023-01-15T21:56:17.681Z,72.62
2023-01-15T21:58:44.232Z,72.47
2023-01-15T22:01:12.482Z,73.40
2023-01-15T22:03:40.145Z,73.47
2023-01-15T22:06:08.929Z,72.53
2023-01-15T22:08:35.832Z,72.66
2023-01-15T22:11:08.018Z,73.03
2023-01-15T22:13:36.546Z,72.96
2023-01-15T22:16:06.182Z,73.16
2023-01-15T22:18:33.980Z,72.92
2023-01-15T22:21:03.513Z,73.32
2023-01-15T22:23:30.218Z,72.95
2023-01-15T22:25:56.835Z,72.88
2023-01-15T22:28:23.736Z,72.99
2023-01-15T22:30:50.440Z,71.20
2023-01-15T22:33:17.235Z,71.20
2023-01-15T22:35:44.120Z,70.98
2023-01-15T22:38:10.710Z,71.46
2023-01-15T22:40:37.382Z,72.32
2023-01-15T22:43:04.035Z,71.34
2023-01-15T22:45:30.717Z,70.75
2023-01-15T22:47:57.290Z,72.02
2023-01-15T22:50:23.950Z,70.82
2023-01-15T22:52:50.543Z,71.90
2023-01-15T22:55:17.271Z,71.95
2023-01-15T22:57:43.980Z,71.64
2023-01-15T23:00:11.069Z,70.30
2023-01-15T23:02:56.245Z,71.40
2023-01-15T23:05:24.203Z,70.50
2023-01-15T23:07:51.146Z,71.39
2023-01-15T23:10:17.743Z,70.75
2023-01-15T23:12:44.407Z,71.22
2023-01-15T23:15:13.339Z,71.68
2023-01-15T23:17:40.581Z,70.30
2023-01-15T23:20:09.472Z,70.48
2023-01-15T23:22:36.146Z,70.41
2023-01-15T23:25:03.173Z,69.90
2023-01-15T23:27:30.289Z,71.52
2023-01-15T23:29:56.935Z,69.85
2023-01-15T23:32:23.517Z,70.02
2023-01-15T23:34:50.155Z,71.31
2023-01-15T23:37:16.926Z,70.83
2023-01-15T23:39:43.482Z,70.02
2023-01-15T23:42:29.877Z,70.42
2023-01-15T23:45:15.242Z,70.90
2023-01-15T23:47:41.814Z,71.38
2023-01-15T23:50:08.854Z,72.08
2023-01-15T23:52:35.503Z,70.36
2023-01-15T23:55:02.189Z,69.33
2023-01-15T23:57:30.292Z,69.76
2023-01-15T23:59:56.855Z,69.73
